sensor_id;sensor_type;location;lat;lon;timestamp;pressure;altitude;pressure_sealevel;temperature;humidity
46724;BME280;32463;48.298;11.620;2022-12-07T10:55:16;96187.66;;;5.00;100.00
46724;BME280;32463;48.298;11.620;2022-12-07T11:00:21;96182.66;;;6.85;100.00
46724;BME280;32463;48.298;11.620;2022-12-07T11:05:28;96175.09;;;7.20;85.58
46724;BME280;32463;48.298;11.620;2022-12-07T11:08:21;96173.16;;;6.95;84.22
46724;BME280;32463;48.298;11.620;2022-12-07T11:13:28;96166.53;;;8.55;69.92
46724;BME280;32463;48.298;11.620;2022-12-07T11:16:04;96163.84;;;8.91;66.77
46724;BME280;32463;48.298;11.620;2022-12-07T11:19:10;96154.59;;;10.14;60.81
46724;BME280;32463;48.298;11.620;2022-12-07T11:22:00;96155.31;;;7.93;66.68
46724;BME280;32463;48.298;11.620;2022-12-07T11:24:40;96146.25;;;7.07;73.22
46724;BME280;32463;48.298;11.620;2022-12-07T11:33:22;96147.56;;;8.98;64.32
46724;BME280;32463;48.298;11.620;2022-12-07T11:38:40;96151.03;;;6.17;84.45
46724;BME280;32463;48.298;11.620;2022-12-07T11:41:09;96149.06;;;5.61;87.76
46724;BME280;32463;48.298;11.620;2022-12-07T11:47:04;96134.47;;;6.48;83.91
46724;BME280;32463;48.298;11.620;2022-12-07T11:52:18;96139.28;;;5.55;94.02
46724;BME280;32463;48.298;11.620;2022-12-07T11:54:47;96132.78;;;5.51;94.96
46724;BME280;32463;48.298;11.620;2022-12-07T11:57:24;96141.25;;;4.92;100.00
46724;BME280;32463;48.298;11.620;2022-12-07T11:59:58;96129.56;;;5.49;95.29
46724;BME280;32463;48.298;11.620;2022-12-07T12:02:32;96129.69;;;5.07;97.46
46724;BME280;32463;48.298;11.620;2022-12-07T12:07:33;96122.88;;;4.96;100.00
46724;BME280;32463;48.298;11.620;2022-12-07T12:10:17;96122.16;;;5.15;100.00
46724;BME280;32463;48.298;11.620;2022-12-07T12:15:38;96114.41;;;5.46;99.89
46724;BME280;32463;48.298;11.620;2022-12-07T12:18:24;96112.19;;;5.31;98.66
46724;BME280;32463;48.298;11.620;2022-12-07T12:26:23;96102.47;;;4.95;100.00
46724;BME280;32463;48.298;11.620;2022-12-07T12:31:32;96104.28;;;5.04;100.00
46724;BME280;32463;48.298;11.620;2022-12-07T12:34:03;96104.22;;;4.85;100.00
46724;BME280;32463;48.298;11.620;2022-12-07T12:39:12;96098.84;;;4.97;100.00
46724;BME280;32463;48.298;11.620;2022-12-07T12:47:01;96101.53;;;4.96;100.00
46724;BME280;32463;48.298;11.620;2022-12-07T12:49:43;96100.06;;;5.03;100.00
46724;BME280;32463;48.298;11.620;2022-12-07T12:57:33;96104.88;;;4.56;100.00
46724;BME280;32463;48.298;11.620;2022-12-07T13:00:14;96105.41;;;4.60;100.00
46724;BME280;32463;48.298;11.620;2022-12-07T13:05:22;96105.47;;;5.00;100.00
46724;BME280;32463;48.298;11.620;2022-12-07T13:07:54;96094.50;;;4.98;100.00
46724;BME280;32463;48.298;11.620;2022-12-07T13:28:43;96085.13;;;4.26;100.00
46724;BME280;32463;48.298;11.620;2022-12-07T13:33:49;96082.44;;;4.28;100.00
46724;BME280;32463;48.298;11.620;2022-12-07T13:36:20;96088.59;;;4.46;100.00
46724;BME280;32463;48.298;11.620;2022-12-07T13:38:53;96083.97;;;4.40;100.00
46724;BME280;32463;48.298;11.620;2022-12-07T13:41:22;96089.34;;;4.37;100.00
46724;BME280;32463;48.298;11.620;2022-12-07T13:43:52;96085.59;;;4.41;100.00
46724;BME280;32463;48.298;11.620;2022-12-07T13:46:26;96090.25;;;4.47;100.00
46724;BME280;32463;48.298;11.620;2022-12-07T13:48:55;96080.91;;;4.46;100.00
46724;BME280;32463;48.298;11.620;2022-12-07T13:51:24;96077.41;;;4.47;100.00
46724;BME280;32463;48.298;11.620;2022-12-07T13:53:59;96074.84;;;4.47;100.00
46724;BME280;32463;48.298;11.620;2022-12-07T13:56:32;96078.53;;;4.54;100.00
46724;BME280;32463;48.298;11.620;2022-12-07T13:58:59;96069.88;;;4.86;100.00
46724;BME280;32463;48.298;11.620;2022-12-07T14:01:26;96071.31;;;5.28;99.74
46724;BME280;32463;48.298;11.620;2022-12-07T14:03:54;96061.59;;;5.32;98.57
46724;BME280;32463;48.298;11.620;2022-12-07T14:06:24;96065.69;;;5.44;97.99
46724;BME280;32463;48.298;11.620;2022-12-07T14:09:20;96057.00;;;5.35;95.21
46724;BME280;32463;48.298;11.620;2022-12-07T14:11:49;96069.38;;;5.01;97.46
46724;BME280;32463;48.298;11.620;2022-12-07T14:14:25;96066.94;;;5.00;100.00
46724;BME280;32463;48.298;11.620;2022-12-07T14:17:20;96068.06;;;5.26;94.70
46724;BME280;32463;48.298;11.620;2022-12-07T14:20:01;96068.94;;;5.46;90.52
46724;BME280;32463;48.298;11.620;2022-12-07T14:22:37;96062.53;;;5.31;91.15
46724;BME280;32463;48.298;11.620;2022-12-07T14:27:51;96060.75;;;5.12;100.00
46724;BME280;32463;48.298;11.620;2022-12-07T14:30:22;96066.41;;;5.06;100.00
46724;BME280;32463;48.298;11.620;2022-12-07T14:33:15;96064.94;;;5.13;100.00
46724;BME280;32463;48.298;11.620;2022-12-07T14:35:42;96065.84;;;5.02;100.00
46724;BME280;32463;48.298;11.620;2022-12-07T14:38:09;96061.75;;;4.81;100.00
46724;BME280;32463;48.298;11.620;2022-12-07T14:40:35;96069.19;;;4.84;100.00
46724;BME280;32463;48.298;11.620;2022-12-07T14:43:04;96062.50;;;4.71;100.00
46724;BME280;32463;48.298;11.620;2022-12-07T14:45:31;96064.81;;;4.44;100.00
46724;BME280;32463;48.298;11.620;2022-12-07T14:47:58;96062.63;;;4.39;100.00
46724;BME280;32463;48.298;11.620;2022-12-07T14:50:25;96065.81;;;4.32;100.00
46724;BME280;32463;48.298;11.620;2022-12-07T14:52:56;96065.72;;;4.13;100.00
46724;BME280;32463;48.298;11.620;2022-12-07T14:55:26;96060.16;;;3.87;100.00
46724;BME280;32463;48.298;11.620;2022-12-07T14:57:53;96061.22;;;3.84;100.00
46724;BME280;32463;48.298;11.620;2022-12-07T15:00:20;96063.19;;;3.60;100.00
46724;BME280;32463;48.298;11.620;2022-12-07T15:02:48;96047.75;;;3.71;100.00
46724;BME280;32463;48.298;11.620;2022-12-07T15:05:15;96055.06;;;3.55;100.00
46724;BME280;32463;48.298;11.620;2022-12-07T15:07:42;96054.72;;;3.48;100.00
46724;BME280;32463;48.298;11.620;2022-12-07T15:10:25;96055.38;;;3.29;100.00
46724;BME280;32463;48.298;11.620;2022-12-07T15:13:12;96058.19;;;3.15;100.00
46724;BME280;32463;48.298;11.620;2022-12-07T15:15:55;96045.91;;;2.98;100.00
46724;BME280;32463;48.298;11.620;2022-12-07T15:18:23;96054.97;;;2.91;100.00
46724;BME280;32463;48.298;11.620;2022-12-07T15:20:50;96052.53;;;2.78;100.00
46724;BME280;32463;48.298;11.620;2022-12-07T15:23:17;96053.16;;;2.70;100.00
46724;BME280;32463;48.298;11.620;2022-12-07T15:25:46;96050.13;;;2.65;100.00
46724;BME280;32463;48.298;11.620;2022-12-07T15:28:13;96060.59;;;2.62;100.00
46724;BME280;32463;48.298;11.620;2022-12-07T15:30:41;96056.50;;;2.60;100.00
46724;BME280;32463;48.298;11.620;2022-12-07T15:33:09;96047.31;;;2.57;100.00
46724;BME280;32463;48.298;11.620;2022-12-07T15:35:43;96052.44;;;2.57;100.00
46724;BME280;32463;48.298;11.620;2022-12-07T15:38:11;96051.25;;;2.50;100.00
46724;BME280;32463;48.298;11.620;2022-12-07T15:40:38;96055.56;;;2.50;100.00
46724;BME280;32463;48.298;11.620;2022-12-07T15:43:04;96051.75;;;2.44;100.00
46724;BME280;32463;48.298;11.620;2022-12-07T15:45:51;96049.19;;;2.44;100.00
46724;BME280;32463;48.298;11.620;2022-12-07T15:48:16;96060.34;;;2.43;100.00
46724;BME280;32463;48.298;11.620;2022-12-07T15:50:44;96052.53;;;2.45;100.00
46724;BME280;32463;48.298;11.620;2022-12-07T15:53:12;96052.78;;;2.42;100.00
46724;BME280;32463;48.298;11.620;2022-12-07T15:55:39;96054.53;;;2.41;100.00
46724;BME280;32463;48.298;11.620;2022-12-07T15:58:06;96050.34;;;2.40;100.00
46724;BME280;32463;48.298;11.620;2022-12-07T16:00:34;96041.97;;;2.38;100.00
46724;BME280;32463;48.298;11.620;2022-12-07T16:03:01;96047.09;;;2.38;100.00
46724;BME280;32463;48.298;11.620;2022-12-07T16:05:28;96048.03;;;2.37;100.00
46724;BME280;32463;48.298;11.620;2022-12-07T16:07:54;96048.72;;;2.39;100.00
46724;BME280;32463;48.298;11.620;2022-12-07T16:10:21;96048.72;;;2.39;100.00
46724;BME280;32463;48.298;11.620;2022-12-07T16:12:47;96049.06;;;2.46;100.00
46724;BME280;32463;48.298;11.620;2022-12-07T16:15:14;96047.41;;;2.45;100.00
46724;BME280;32463;48.298;11.620;2022-12-07T16:17:40;96050.78;;;2.45;100.00
46724;BME280;32463;48.298;11.620;2022-12-07T16:20:07;96043.13;;;2.45;100.00
46724;BME280;32463;48.298;11.620;2022-12-07T16:22:35;96040.94;;;2.41;100.00
46724;BME280;32463;48.298;11.620;2022-12-07T16:25:05;96038.00;;;2.45;100.00
46724;BME280;32463;48.298;11.620;2022-12-07T16:27:32;96038.00;;;2.45;100.00
46724;BME280;32463;48.298;11.620;2022-12-07T16:29:58;96031.28;;;2.44;100.00
46724;BME280;32463;48.298;11.620;2022-12-07T16:32:25;96028.03;;;2.42;100.00
46724;BME280;32463;48.298;11.620;2022-12-07T16:34:52;96032.34;;;2.42;100.00
46724;BME280;32463;48.298;11.620;2022-12-07T16:37:18;96041.75;;;2.41;100.00
46724;BME280;32463;48.298;11.620;2022-12-07T16:39:44;96028.25;;;2.39;100.00
46724;BME280;32463;48.298;11.620;2022-12-07T16:42:11;96035.22;;;2.37;100.00
46724;BME280;32463;48.298;11.620;2022-12-07T16:44:37;96038.72;;;2.36;100.00
46724;BME280;32463;48.298;11.620;2022-12-07T16:47:04;96037.31;;;2.32;100.00
46724;BME280;32463;48.298;11.620;2022-12-07T16:49:30;96036.38;;;2.33;100.00
46724;BME280;32463;48.298;11.620;2022-12-07T16:51:57;96033.03;;;2.32;100.00
46724;BME280;32463;48.298;11.620;2022-12-07T16:54:23;96029.75;;;2.30;100.00
46724;BME280;32463;48.298;11.620;2022-12-07T16:56:50;96030.81;;;2.28;100.00
46724;BME280;32463;48.298;11.620;2022-12-07T16:59:16;96033.81;;;2.22;100.00
46724;BME280;32463;48.298;11.620;2022-12-07T17:01:42;96028.94;;;2.19;100.00
46724;BME280;32463;48.298;11.620;2022-12-07T17:04:09;96030.06;;;2.15;100.00
46724;BME280;32463;48.298;11.620;2022-12-07T17:06:35;96033.00;;;2.10;100.00
46724;BME280;32463;48.298;11.620;2022-12-07T17:09:02;96029.16;;;2.05;100.00
46724;BME280;32463;48.298;11.620;2022-12-07T17:11:29;96031.00;;;2.02;100.00
46724;BME280;32463;48.298;11.620;2022-12-07T17:13:57;96031.22;;;1.99;100.00
46724;BME280;32463;48.298;11.620;2022-12-07T17:16:41;96034.94;;;1.95;100.00
46724;BME280;32463;48.298;11.620;2022-12-07T17:19:09;96020.88;;;1.90;100.00
46724;BME280;32463;48.298;11.620;2022-12-07T17:21:37;96025.38;;;1.86;100.00
46724;BME280;32463;48.298;11.620;2022-12-07T17:24:06;96025.63;;;1.83;100.00
46724;BME280;32463;48.298;11.620;2022-12-07T17:26:33;96021.19;;;1.74;100.00
46724;BME280;32463;48.298;11.620;2022-12-07T17:29:00;96021.63;;;1.68;100.00
46724;BME280;32463;48.298;11.620;2022-12-07T17:31:26;96023.69;;;1.63;100.00
46724;BME280;32463;48.298;11.620;2022-12-07T17:33:53;96021.13;;;1.52;100.00
46724;BME280;32463;48.298;11.620;2022-12-07T17:36:21;96024.22;;;1.44;100.00
46724;BME280;32463;48.298;11.620;2022-12-07T17:38:49;96024.13;;;1.46;100.00
46724;BME280;32463;48.298;11.620;2022-12-07T17:41:18;96025.88;;;1.45;100.00
46724;BME280;32463;48.298;11.620;2022-12-07T17:43:59;96022.72;;;1.42;100.00
46724;BME280;32463;48.298;11.620;2022-12-07T17:46:26;96023.19;;;1.47;100.00
46724;BME280;32463;48.298;11.620;2022-12-07T17:48:56;96026.25;;;1.52;100.00
46724;BME280;32463;48.298;11.620;2022-12-07T17:51:23;96025.78;;;1.58;100.00
46724;BME280;32463;48.298;11.620;2022-12-07T17:54:08;96023.00;;;1.61;100.00
46724;BME280;32463;48.298;11.620;2022-12-07T17:56:35;96016.97;;;1.62;100.00
46724;BME280;32463;48.298;11.620;2022-12-07T17:59:02;96012.13;;;1.70;100.00
46724;BME280;32463;48.298;11.620;2022-12-07T18:01:29;96016.09;;;1.74;100.00
46724;BME280;32463;48.298;11.620;2022-12-07T18:03:55;96010.75;;;1.77;100.00
46724;BME280;32463;48.298;11.620;2022-12-07T18:06:22;96010.53;;;1.80;100.00
46724;BME280;32463;48.298;11.620;2022-12-07T18:08:49;96014.81;;;1.80;100.00
46724;BME280;32463;48.298;11.620;2022-12-07T18:11:16;96020.75;;;1.80;100.00
46724;BME280;32463;48.298;11.620;2022-12-07T18:13:43;96022.50;;;1.80;100.00
46724;BME280;32463;48.298;11.620;2022-12-07T18:16:18;96019.13;;;1.79;100.00
46724;BME280;32463;48.298;11.620;2022-12-07T18:18:46;96015.84;;;1.77;100.00
46724;BME280;32463;48.298;11.620;2022-12-07T18:21:16;96022.00;;;1.75;100.00
46724;BME280;32463;48.298;11.620;2022-12-07T18:23:48;96021.19;;;1.74;100.00
46724;BME280;32463;48.298;11.620;2022-12-07T18:26:16;96016.31;;;1.71;100.00
46724;BME280;32463;48.298;11.620;2022-12-07T18:28:44;96021.41;;;1.71;100.00
46724;BME280;32463;48.298;11.620;2022-12-07T18:31:11;96021.63;;;1.68;100.00
46724;BME280;32463;48.298;11.620;2022-12-07T18:33:39;96019.19;;;1.66;100.00
46724;BME280;32463;48.298;11.620;2022-12-07T18:36:06;96021.16;;;1.63;100.00
46724;BME280;32463;48.298;11.620;2022-12-07T18:38:33;96023.38;;;1.67;100.00
46724;BME280;32463;48.298;11.620;2022-12-07T18:41:00;96018.97;;;1.69;100.00
46724;BME280;32463;48.298;11.620;2022-12-07T18:43:27;96024.06;;;1.69;100.00
46724;BME280;32463;48.298;11.620;2022-12-07T18:45:53;96023.25;;;1.69;100.00
46724;BME280;32463;48.298;11.620;2022-12-07T18:48:21;96014.91;;;1.67;100.00
46724;BME280;32463;48.298;11.620;2022-12-07T18:51:03;96028.38;;;1.69;100.00
46724;BME280;32463;48.298;11.620;2022-12-07T18:53:30;96011.63;;;1.65;100.00
46724;BME280;32463;48.298;11.620;2022-12-07T18:56:08;96016.75;;;1.65;100.00
46724;BME280;32463;48.298;11.620;2022-12-07T18:58:35;96020.94;;;1.66;100.00
46724;BME280;32463;48.298;11.620;2022-12-07T19:01:02;96019.28;;;1.65;100.00
46724;BME280;32463;48.298;11.620;2022-12-07T19:03:28;96014.41;;;1.62;100.00
46724;BME280;32463;48.298;11.620;2022-12-07T19:05:56;96019.41;;;1.63;100.00
46724;BME280;32463;48.298;11.620;2022-12-07T19:08:24;96002.66;;;1.59;100.00
46724;BME280;32463;48.298;11.620;2022-12-07T19:10:51;96016.16;;;1.61;100.00
46724;BME280;32463;48.298;11.620;2022-12-07T19:13:17;96010.22;;;1.61;100.00
46724;BME280;32463;48.298;11.620;2022-12-07T19:15:44;96011.84;;;1.62;100.00
46724;BME280;32463;48.298;11.620;2022-12-07T19:18:10;96009.19;;;1.63;100.00
46724;BME280;32463;48.298;11.620;2022-12-07T19:20:37;96020.22;;;1.64;100.00
46724;BME280;32463;48.298;11.620;2022-12-07T19:23:04;96010.44;;;1.58;100.00
46724;BME280;32463;48.298;11.620;2022-12-07T19:25:30;96009.53;;;1.59;100.00
46724;BME280;32463;48.298;11.620;2022-12-07T19:27:57;96005.81;;;1.52;100.00
46724;BME280;32463;48.298;11.620;2022-12-07T19:30:23;96002.97;;;1.44;100.00
46724;BME280;32463;48.298;11.620;2022-12-07T19:32:50;95998.75;;;1.31;100.00
46724;BME280;32463;48.298;11.620;2022-12-07T19:35:16;96005.09;;;1.26;100.00
46724;BME280;32463;48.298;11.620;2022-12-07T19:37:43;95997.81;;;1.21;100.00
46724;BME280;32463;48.298;11.620;2022-12-07T19:40:10;95997.84;;;1.09;100.00
46724;BME280;32463;48.298;11.620;2022-12-07T19:42:36;95997.47;;;1.02;100.00
46724;BME280;32463;48.298;11.620;2022-12-07T19:45:03;96002.06;;;0.97;100.00
46724;BME280;32463;48.298;11.620;2022-12-07T19:47:29;95996.47;;;0.92;100.00
46724;BME280;32463;48.298;11.620;2022-12-07T19:49:56;95995.69;;;0.91;100.00
46724;BME280;32463;48.298;11.620;2022-12-07T19:52:22;95985.09;;;0.85;100.00
46724;BME280;32463;48.298;11.620;2022-12-07T19:54:50;95995.09;;;0.88;100.00
46724;BME280;32463;48.298;11.620;2022-12-07T19:57:17;95981.63;;;0.86;100.00
46724;BME280;32463;48.298;11.620;2022-12-07T19:59:43;95988.47;;;0.85;100.00
46724;BME280;32463;48.298;11.620;2022-12-07T20:02:12;95996.00;;;0.87;100.00
46724;BME280;32463;48.298;11.620;2022-12-07T20:04:39;95993.66;;;0.84;100.00
46724;BME280;32463;48.298;11.620;2022-12-07T20:07:06;95985.09;;;0.85;100.00
46724;BME280;32463;48.298;11.620;2022-12-07T20:09:33;95981.81;;;0.83;100.00
46724;BME280;32463;48.298;11.620;2022-12-07T20:11:59;95982.75;;;0.82;100.00
46724;BME280;32463;48.298;11.620;2022-12-07T20:14:44;95986.22;;;0.81;100.00
46724;BME280;32463;48.298;11.620;2022-12-07T20:17:10;95984.47;;;0.81;100.00
46724;BME280;32463;48.298;11.620;2022-12-07T20:19:37;95987.84;;;0.82;100.00
46724;BME280;32463;48.298;11.620;2022-12-07T20:22:04;95985.31;;;0.82;100.00
46724;BME280;32463;48.298;11.620;2022-12-07T20:24:31;95983.66;;;0.81;100.00
46724;BME280;32463;48.298;11.620;2022-12-07T20:26:59;95981.13;;;0.81;100.00
46724;BME280;32463;48.298;11.620;2022-12-07T20:29:25;95980.41;;;0.79;100.00
46724;BME280;32463;48.298;11.620;2022-12-07T20:31:53;95981.94;;;0.81;100.00
46724;BME280;32463;48.298;11.620;2022-12-07T20:34:20;95976.94;;;0.80;100.00
46724;BME280;32463;48.298;11.620;2022-12-07T20:36:47;95977.84;;;0.79;100.00
46724;BME280;32463;48.298;11.620;2022-12-07T20:39:13;95985.50;;;0.79;100.00
46724;BME280;32463;48.298;11.620;2022-12-07T20:41:40;95979.38;;;0.81;100.00
46724;BME280;32463;48.298;11.620;2022-12-07T20:44:25;95970.19;;;0.79;100.00
46724;BME280;32463;48.298;11.620;2022-12-07T20:46:51;95970.81;;;0.82;100.00
46724;BME280;32463;48.298;11.620;2022-12-07T20:49:18;95970.69;;;0.84;100.00
46724;BME280;32463;48.298;11.620;2022-12-07T20:51:45;95974.06;;;0.84;100.00
46724;BME280;32463;48.298;11.620;2022-12-07T20:54:12;95969.78;;;0.85;100.00
46724;BME280;32463;48.298;11.620;2022-12-07T20:56:40;95966.41;;;0.84;100.00
46724;BME280;32463;48.298;11.620;2022-12-07T20:59:09;95963.03;;;0.84;100.00
46724;BME280;32463;48.298;11.620;2022-12-07T21:01:38;95959.78;;;0.82;100.00
46724;BME280;32463;48.298;11.620;2022-12-07T21:04:05;95947.94;;;0.81;100.00
46724;BME280;32463;48.298;11.620;2022-12-07T21:06:31;95956.53;;;0.80;100.00
46724;BME280;32463;48.298;11.620;2022-12-07T21:08:59;95958.38;;;0.78;100.00
46724;BME280;32463;48.298;11.620;2022-12-07T21:11:27;95946.53;;;0.77;100.00
46724;BME280;32463;48.298;11.620;2022-12-07T21:13:54;95950.22;;;0.73;100.00
46724;BME280;32463;48.298;11.620;2022-12-07T21:16:23;95940.81;;;0.73;100.00
46724;BME280;32463;48.298;11.620;2022-12-07T21:18:50;95943.50;;;0.72;100.00
46724;BME280;32463;48.298;11.620;2022-12-07T21:21:18;95939.41;;;0.69;100.00
46724;BME280;32463;48.298;11.620;2022-12-07T21:23:51;95931.06;;;0.67;100.00
46724;BME280;32463;48.298;11.620;2022-12-07T21:26:21;95931.88;;;0.67;100.00
46724;BME280;32463;48.298;11.620;2022-12-07T21:28:49;95924.53;;;0.63;100.00
46724;BME280;32463;48.298;11.620;2022-12-07T21:31:16;95926.75;;;0.67;100.00
46724;BME280;32463;48.298;11.620;2022-12-07T21:33:44;95922.38;;;0.70;100.00
46724;BME280;32463;48.298;11.620;2022-12-07T21:36:12;95932.56;;;0.70;100.00
46724;BME280;32463;48.298;11.620;2022-12-07T21:38:39;95932.78;;;0.66;100.00
46724;BME280;32463;48.298;11.620;2022-12-07T21:41:18;95943.50;;;0.72;100.00
46724;BME280;32463;48.298;11.620;2022-12-07T21:43:45;95941.16;;;0.68;100.00
46724;BME280;32463;48.298;11.620;2022-12-07T21:46:14;95943.31;;;0.62;100.00
46724;BME280;32463;48.298;11.620;2022-12-07T21:48:41;95937.13;;;0.53;100.00
46724;BME280;32463;48.298;11.620;2022-12-07T21:51:12;95939.19;;;0.48;100.00
46724;BME280;32463;48.298;11.620;2022-12-07T21:53:40;95942.75;;;0.46;100.00
46724;BME280;32463;48.298;11.620;2022-12-07T21:56:31;95948.69;;;0.46;100.00
46724;BME280;32463;48.298;11.620;2022-12-07T21:59:07;95931.97;;;0.42;100.00
46724;BME280;32463;48.298;11.620;2022-12-07T22:01:35;95931.03;;;0.43;100.00
46724;BME280;32463;48.298;11.620;2022-12-07T22:04:08;95930.34;;;0.41;100.00
46724;BME280;32463;48.298;11.620;2022-12-07T22:06:36;95940.53;;;0.41;100.00
46724;BME280;32463;48.298;11.620;2022-12-07T22:09:04;95938.69;;;0.43;100.00
46724;BME280;32463;48.298;11.620;2022-12-07T22:11:31;95931.97;;;0.42;100.00
46724;BME280;32463;48.298;11.620;2022-12-07T22:14:00;95938.69;;;0.43;100.00
46724;BME280;32463;48.298;11.620;2022-12-07T22:16:46;95936.03;;;0.45;100.00
46724;BME280;32463;48.298;11.620;2022-12-07T22:19:16;95927.47;;;0.46;100.00
46724;BME280;32463;48.298;11.620;2022-12-07T22:21:42;95933.38;;;0.46;100.00
46724;BME280;32463;48.298;11.620;2022-12-07T22:24:10;95926.44;;;0.48;100.00
46724;BME280;32463;48.298;11.620;2022-12-07T22:26:38;95925.50;;;0.49;100.00
46724;BME280;32463;48.298;11.620;2022-12-07T22:29:05;95927.66;;;0.55;100.00
46724;BME280;32463;48.298;11.620;2022-12-07T22:31:31;95914.19;;;0.53;100.00
46724;BME280;32463;48.298;11.620;2022-12-07T22:33:58;95923.16;;;0.59;100.00
46724;BME280;32463;48.298;11.620;2022-12-07T22:36:24;95925.25;;;0.65;100.00
46724;BME280;32463;48.298;11.620;2022-12-07T22:38:52;95914.22;;;0.64;100.00
46724;BME280;32463;48.298;11.620;2022-12-07T22:41:22;95920.25;;;0.63;100.00
46724;BME280;32463;48.298;11.620;2022-12-07T22:43:49;95917.59;;;0.65;100.00
46724;BME280;32463;48.298;11.620;2022-12-07T22:46:16;95908.19;;;0.65;100.00
46724;BME280;32463;48.298;11.620;2022-12-07T22:48:43;95904.72;;;0.66;100.00
46724;BME280;32463;48.298;11.620;2022-12-07T22:51:27;95904.50;;;0.70;100.00
46724;BME280;32463;48.298;11.620;2022-12-07T22:53:56;95902.88;;;0.68;100.00
46724;BME280;32463;48.298;11.620;2022-12-07T22:56:23;95899.41;;;0.70;100.00
46724;BME280;32463;48.298;11.620;2022-12-07T22:58:50;95904.28;;;0.73;100.00
46724;BME280;32463;48.298;11.620;2022-12-07T23:01:18;95895.00;;;0.72;100.00
46724;BME280;32463;48.298;11.620;2022-12-07T23:03:46;95902.47;;;0.75;100.00
46724;BME280;32463;48.298;11.620;2022-12-07T23:08:45;95894.09;;;0.73;100.00
46724;BME280;32463;48.298;11.620;2022-12-07T23:11:14;95895.00;;;0.72;100.00
46724;BME280;32463;48.298;11.620;2022-12-07T23:14:02;95905.34;;;0.70;100.00
46724;BME280;32463;48.298;11.620;2022-12-07T23:16:28;95896.03;;;0.69;100.00
46724;BME280;32463;48.298;11.620;2022-12-07T23:18:55;95888.50;;;0.67;100.00
46724;BME280;32463;48.298;11.620;2022-12-07T23:21:21;95879.44;;;0.63;100.00
46724;BME280;32463;48.298;11.620;2022-12-07T23:23:48;95881.28;;;0.61;100.00
46724;BME280;32463;48.298;11.620;2022-12-07T23:26:14;95878.06;;;0.59;100.00
46724;BME280;32463;48.298;11.620;2022-12-07T23:28:41;95891.47;;;0.61;100.00
46724;BME280;32463;48.298;11.620;2022-12-07T23:31:12;95883.16;;;0.59;100.00
46724;BME280;32463;48.298;11.620;2022-12-07T23:33:40;95881.53;;;0.58;100.00
46724;BME280;32463;48.298;11.620;2022-12-07T23:36:13;95883.16;;;0.59;100.00
46724;BME280;32463;48.298;11.620;2022-12-07T23:38:42;95883.16;;;0.59;100.00
46724;BME280;32463;48.298;11.620;2022-12-07T23:41:11;95875.59;;;0.58;100.00
46724;BME280;32463;48.298;11.620;2022-12-07T23:43:39;95872.47;;;0.54;100.00
46724;BME280;32463;48.298;11.620;2022-12-07T23:46:08;95876.41;;;0.58;100.00
46724;BME280;32463;48.298;11.620;2022-12-07T23:48:35;95870.50;;;0.58;100.00
46724;BME280;32463;48.298;11.620;2022-12-07T23:51:02;95870.72;;;0.55;100.00
46724;BME280;32463;48.298;11.620;2022-12-07T23:53:32;95864.81;;;0.54;100.00
46724;BME280;32463;48.298;11.620;2022-12-07T23:55:58;95861.56;;;0.52;100.00
46724;BME280;32463;48.298;11.620;2022-12-07T23:58:25;95857.47;;;0.50;100.00
